sensor_id;sensor_type;location;lat;lon;timestamp;P1;durP1;ratioP1;P2;durP2;ratioP2
65477;SDS011;53678;39.642;22.430;2023-04-03T00:02:15;15.18;;;5.68;;
65477;SDS011;53678;39.642;22.430;2023-04-03T00:04:40;10.88;;;5.53;;
65477;SDS011;53678;39.642;22.430;2023-04-03T00:07:06;14.13;;;5.55;;
65477;SDS011;53678;39.642;22.430;2023-04-03T00:09:32;11.23;;;5.38;;
65477;SDS011;53678;39.642;22.430;2023-04-03T00:11:58;11.20;;;5.10;;
65477;SDS011;53678;39.642;22.430;2023-04-03T00:14:23;8.80;;;5.32;;
65477;SDS011;53678;39.642;22.430;2023-04-03T00:16:49;9.30;;;5.20;;
65477;SDS011;53678;39.642;22.430;2023-04-03T00:19:15;14.95;;;5.32;;
65477;SDS011;53678;39.642;22.430;2023-04-03T00:21:40;11.93;;;5.53;;
65477;SDS011;53678;39.642;22.430;2023-04-03T00:24:06;11.75;;;5.43;;
65477;SDS011;53678;39.642;22.430;2023-04-03T00:26:32;8.77;;;4.63;;
65477;SDS011;53678;39.642;22.430;2023-04-03T00:28:57;10.70;;;5.57;;
65477;SDS011;53678;39.642;22.430;2023-04-03T00:31:23;11.20;;;4.90;;
65477;SDS011;53678;39.642;22.430;2023-04-03T00:33:49;14.45;;;6.03;;
65477;SDS011;53678;39.642;22.430;2023-04-03T00:36:15;11.52;;;5.40;;
65477;SDS011;53678;39.642;22.430;2023-04-03T00:38:40;10.98;;;6.03;;
65477;SDS011;53678;39.642;22.430;2023-04-03T00:41:06;12.88;;;6.25;;
65477;SDS011;53678;39.642;22.430;2023-04-03T00:43:32;11.45;;;5.95;;
65477;SDS011;53678;39.642;22.430;2023-04-03T00:45:58;13.85;;;5.90;;
65477;SDS011;53678;39.642;22.430;2023-04-03T00:48:39;12.60;;;6.18;;
65477;SDS011;53678;39.642;22.430;2023-04-03T00:51:10;11.15;;;5.35;;
65477;SDS011;53678;39.642;22.430;2023-04-03T00:53:40;11.10;;;6.30;;
65477;SDS011;53678;39.642;22.430;2023-04-03T00:56:11;11.77;;;5.57;;
65477;SDS011;53678;39.642;22.430;2023-04-03T00:58:43;15.55;;;6.30;;
65477;SDS011;53678;39.642;22.430;2023-04-03T01:01:12;13.20;;;7.30;;
65477;SDS011;53678;39.642;22.430;2023-04-03T01:03:43;13.18;;;6.28;;
65477;SDS011;53678;39.642;22.430;2023-04-03T01:06:18;13.38;;;6.55;;
65477;SDS011;53678;39.642;22.430;2023-04-03T01:08:48;15.52;;;7.18;;
65477;SDS011;53678;39.642;22.430;2023-04-03T01:11:15;13.55;;;6.90;;
65477;SDS011;53678;39.642;22.430;2023-04-03T01:13:42;15.25;;;6.68;;
65477;SDS011;53678;39.642;22.430;2023-04-03T01:16:08;13.55;;;6.05;;
65477;SDS011;53678;39.642;22.430;2023-04-03T01:18:36;13.02;;;6.10;;
65477;SDS011;53678;39.642;22.430;2023-04-03T01:26:04;13.68;;;6.13;;
65477;SDS011;53678;39.642;22.430;2023-04-03T01:28:31;12.60;;;6.70;;
65477;SDS011;53678;39.642;22.430;2023-04-03T01:33:53;9.13;;;5.22;;
65477;SDS011;53678;39.642;22.430;2023-04-03T01:36:24;9.80;;;5.32;;
65477;SDS011;53678;39.642;22.430;2023-04-03T01:38:53;8.35;;;5.32;;
65477;SDS011;53678;39.642;22.430;2023-04-03T01:41:20;8.95;;;5.70;;
65477;SDS011;53678;39.642;22.430;2023-04-03T01:43:47;10.77;;;6.05;;
65477;SDS011;53678;39.642;22.430;2023-04-03T01:46:14;11.60;;;6.13;;
65477;SDS011;53678;39.642;22.430;2023-04-03T01:48:42;10.73;;;5.38;;
65477;SDS011;53678;39.642;22.430;2023-04-03T01:51:08;12.40;;;5.93;;
65477;SDS011;53678;39.642;22.430;2023-04-03T01:53:34;9.60;;;5.65;;
65477;SDS011;53678;39.642;22.430;2023-04-03T01:56:00;11.70;;;5.70;;
65477;SDS011;53678;39.642;22.430;2023-04-03T01:58:26;11.55;;;6.10;;
65477;SDS011;53678;39.642;22.430;2023-04-03T02:00:52;10.05;;;6.25;;
65477;SDS011;53678;39.642;22.430;2023-04-03T02:03:19;10.48;;;5.82;;
65477;SDS011;53678;39.642;22.430;2023-04-03T02:05:45;13.68;;;6.38;;
65477;SDS011;53678;39.642;22.430;2023-04-03T02:08:11;12.68;;;6.72;;
65477;SDS011;53678;39.642;22.430;2023-04-03T02:10:38;13.77;;;6.53;;
65477;SDS011;53678;39.642;22.430;2023-04-03T02:13:05;10.90;;;6.78;;
65477;SDS011;53678;39.642;22.430;2023-04-03T02:15:31;11.65;;;6.55;;
65477;SDS011;53678;39.642;22.430;2023-04-03T02:17:57;12.90;;;6.97;;
65477;SDS011;53678;39.642;22.430;2023-04-03T02:20:22;13.82;;;6.97;;
65477;SDS011;53678;39.642;22.430;2023-04-03T02:22:48;9.80;;;6.00;;
65477;SDS011;53678;39.642;22.430;2023-04-03T02:25:14;14.10;;;6.75;;
65477;SDS011;53678;39.642;22.430;2023-04-03T02:27:40;11.68;;;6.68;;
65477;SDS011;53678;39.642;22.430;2023-04-03T02:30:06;12.18;;;6.53;;
65477;SDS011;53678;39.642;22.430;2023-04-03T02:32:34;13.50;;;6.55;;
65477;SDS011;53678;39.642;22.430;2023-04-03T02:35:01;12.93;;;6.40;;
65477;SDS011;53678;39.642;22.430;2023-04-03T02:37:27;17.63;;;7.35;;
65477;SDS011;53678;39.642;22.430;2023-04-03T02:39:53;12.82;;;6.75;;
65477;SDS011;53678;39.642;22.430;2023-04-03T02:42:19;16.33;;;8.07;;
65477;SDS011;53678;39.642;22.430;2023-04-03T02:44:45;16.55;;;6.93;;
65477;SDS011;53678;39.642;22.430;2023-04-03T02:47:11;13.82;;;6.72;;
65477;SDS011;53678;39.642;22.430;2023-04-03T02:49:37;17.92;;;7.18;;
65477;SDS011;53678;39.642;22.430;2023-04-03T02:52:03;17.25;;;8.32;;
65477;SDS011;53678;39.642;22.430;2023-04-03T02:54:28;15.23;;;7.90;;
65477;SDS011;53678;39.642;22.430;2023-04-03T02:56:59;14.75;;;8.20;;
65477;SDS011;53678;39.642;22.430;2023-04-03T02:59:25;12.63;;;7.78;;
65477;SDS011;53678;39.642;22.430;2023-04-03T03:01:50;14.07;;;7.97;;
65477;SDS011;53678;39.642;22.430;2023-04-03T03:04:16;10.93;;;7.32;;
65477;SDS011;53678;39.642;22.430;2023-04-03T03:06:42;19.35;;;7.95;;
65477;SDS011;53678;39.642;22.430;2023-04-03T03:09:07;13.13;;;7.53;;
65477;SDS011;53678;39.642;22.430;2023-04-03T03:11:33;16.15;;;7.70;;
65477;SDS011;53678;39.642;22.430;2023-04-03T03:14:01;13.93;;;8.05;;
65477;SDS011;53678;39.642;22.430;2023-04-03T03:16:27;14.65;;;8.23;;
65477;SDS011;53678;39.642;22.430;2023-04-03T03:18:52;18.35;;;8.70;;
65477;SDS011;53678;39.642;22.430;2023-04-03T03:21:18;16.90;;;8.20;;
65477;SDS011;53678;39.642;22.430;2023-04-03T03:23:44;14.73;;;8.32;;
65477;SDS011;53678;39.642;22.430;2023-04-03T03:26:10;13.82;;;8.30;;
65477;SDS011;53678;39.642;22.430;2023-04-03T03:28:37;14.60;;;7.88;;
65477;SDS011;53678;39.642;22.430;2023-04-03T03:31:05;17.00;;;8.95;;
65477;SDS011;53678;39.642;22.430;2023-04-03T03:33:32;15.43;;;9.20;;
65477;SDS011;53678;39.642;22.430;2023-04-03T03:35:58;15.18;;;8.02;;
65477;SDS011;53678;39.642;22.430;2023-04-03T03:38:24;17.08;;;9.15;;
65477;SDS011;53678;39.642;22.430;2023-04-03T03:40:51;12.38;;;7.03;;
65477;SDS011;53678;39.642;22.430;2023-04-03T03:43:19;14.95;;;7.30;;
65477;SDS011;53678;39.642;22.430;2023-04-03T03:45:50;13.80;;;7.88;;
65477;SDS011;53678;39.642;22.430;2023-04-03T03:48:18;13.88;;;7.70;;
65477;SDS011;53678;39.642;22.430;2023-04-03T03:50:44;13.93;;;8.20;;
65477;SDS011;53678;39.642;22.430;2023-04-03T03:53:10;16.42;;;8.65;;
65477;SDS011;53678;39.642;22.430;2023-04-03T03:55:36;15.35;;;8.75;;
65477;SDS011;53678;39.642;22.430;2023-04-03T03:58:02;22.77;;;9.30;;
65477;SDS011;53678;39.642;22.430;2023-04-03T04:00:31;16.55;;;8.80;;
65477;SDS011;53678;39.642;22.430;2023-04-03T04:02:57;16.10;;;9.00;;
65477;SDS011;53678;39.642;22.430;2023-04-03T04:05:24;15.48;;;8.27;;
65477;SDS011;53678;39.642;22.430;2023-04-03T04:07:52;15.82;;;8.57;;
65477;SDS011;53678;39.642;22.430;2023-04-03T04:10:18;16.30;;;8.50;;
65477;SDS011;53678;39.642;22.430;2023-04-03T04:12:45;18.05;;;8.05;;
65477;SDS011;53678;39.642;22.430;2023-04-03T04:15:11;13.75;;;8.00;;
65477;SDS011;53678;39.642;22.430;2023-04-03T04:17:38;16.23;;;8.07;;
65477;SDS011;53678;39.642;22.430;2023-04-03T04:20:08;15.43;;;8.85;;
65477;SDS011;53678;39.642;22.430;2023-04-03T04:22:35;17.55;;;9.25;;
65477;SDS011;53678;39.642;22.430;2023-04-03T04:25:00;15.38;;;8.70;;
65477;SDS011;53678;39.642;22.430;2023-04-03T04:27:27;17.73;;;8.75;;
65477;SDS011;53678;39.642;22.430;2023-04-03T04:29:53;14.90;;;7.55;;
65477;SDS011;53678;39.642;22.430;2023-04-03T04:32:20;14.45;;;8.52;;
65477;SDS011;53678;39.642;22.430;2023-04-03T04:34:47;16.40;;;7.90;;
65477;SDS011;53678;39.642;22.430;2023-04-03T04:37:13;17.50;;;8.77;;
65477;SDS011;53678;39.642;22.430;2023-04-03T04:39:38;13.25;;;7.55;;
65477;SDS011;53678;39.642;22.430;2023-04-03T04:42:05;14.90;;;7.28;;
65477;SDS011;53678;39.642;22.430;2023-04-03T04:44:32;18.15;;;7.72;;
65477;SDS011;53678;39.642;22.430;2023-04-03T04:46:59;14.07;;;7.93;;
65477;SDS011;53678;39.642;22.430;2023-04-03T04:49:25;14.02;;;6.45;;
65477;SDS011;53678;39.642;22.430;2023-04-03T04:51:52;12.23;;;6.57;;
65477;SDS011;53678;39.642;22.430;2023-04-03T04:54:24;12.98;;;5.80;;
65477;SDS011;53678;39.642;22.430;2023-04-03T04:56:51;12.65;;;5.38;;
65477;SDS011;53678;39.642;22.430;2023-04-03T04:59:17;8.85;;;4.72;;
65477;SDS011;53678;39.642;22.430;2023-04-03T05:01:43;9.02;;;5.00;;
65477;SDS011;53678;39.642;22.430;2023-04-03T05:04:14;9.15;;;4.47;;
65477;SDS011;53678;39.642;22.430;2023-04-03T05:06:41;6.65;;;3.83;;
65477;SDS011;53678;39.642;22.430;2023-04-03T05:09:12;7.35;;;3.03;;
65477;SDS011;53678;39.642;22.430;2023-04-03T05:11:40;7.25;;;3.35;;
65477;SDS011;53678;39.642;22.430;2023-04-03T05:14:07;7.00;;;2.58;;
65477;SDS011;53678;39.642;22.430;2023-04-03T05:16:34;4.43;;;2.60;;
65477;SDS011;53678;39.642;22.430;2023-04-03T05:19:00;4.25;;;2.35;;
65477;SDS011;53678;39.642;22.430;2023-04-03T05:21:27;3.65;;;2.00;;
65477;SDS011;53678;39.642;22.430;2023-04-03T05:24:01;5.55;;;2.20;;
65477;SDS011;53678;39.642;22.430;2023-04-03T05:26:31;3.15;;;1.70;;
65477;SDS011;53678;39.642;22.430;2023-04-03T05:28:58;4.00;;;2.00;;
65477;SDS011;53678;39.642;22.430;2023-04-03T05:31:29;4.72;;;2.10;;
65477;SDS011;53678;39.642;22.430;2023-04-03T05:33:56;5.07;;;2.40;;
65477;SDS011;53678;39.642;22.430;2023-04-03T05:36:22;4.63;;;2.25;;
65477;SDS011;53678;39.642;22.430;2023-04-03T05:38:54;6.32;;;2.53;;
65477;SDS011;53678;39.642;22.430;2023-04-03T05:41:22;5.43;;;2.58;;
65477;SDS011;53678;39.642;22.430;2023-04-03T05:43:49;5.78;;;2.65;;
65477;SDS011;53678;39.642;22.430;2023-04-03T05:46:16;5.63;;;2.92;;
65477;SDS011;53678;39.642;22.430;2023-04-03T05:48:46;8.45;;;3.28;;
65477;SDS011;53678;39.642;22.430;2023-04-03T05:51:22;5.95;;;2.50;;
65477;SDS011;53678;39.642;22.430;2023-04-03T05:54:00;3.75;;;2.20;;
65477;SDS011;53678;39.642;22.430;2023-04-03T05:56:32;4.25;;;2.13;;
65477;SDS011;53678;39.642;22.430;2023-04-03T05:58:58;4.43;;;2.35;;
65477;SDS011;53678;39.642;22.430;2023-04-03T06:01:24;6.75;;;2.58;;
65477;SDS011;53678;39.642;22.430;2023-04-03T06:03:50;4.10;;;2.25;;
65477;SDS011;53678;39.642;22.430;2023-04-03T06:06:17;5.63;;;2.70;;
65477;SDS011;53678;39.642;22.430;2023-04-03T06:08:43;6.15;;;2.60;;
65477;SDS011;53678;39.642;22.430;2023-04-03T06:11:10;5.90;;;2.83;;
65477;SDS011;53678;39.642;22.430;2023-04-03T06:13:36;5.05;;;2.65;;
65477;SDS011;53678;39.642;22.430;2023-04-03T06:16:02;4.68;;;2.60;;
65477;SDS011;53678;39.642;22.430;2023-04-03T06:18:29;6.30;;;2.65;;
65477;SDS011;53678;39.642;22.430;2023-04-03T06:20:55;5.43;;;2.58;;
65477;SDS011;53678;39.642;22.430;2023-04-03T06:23:21;5.53;;;2.63;;
65477;SDS011;53678;39.642;22.430;2023-04-03T06:25:47;6.63;;;2.67;;
65477;SDS011;53678;39.642;22.430;2023-04-03T06:28:12;6.80;;;3.03;;
65477;SDS011;53678;39.642;22.430;2023-04-03T06:30:38;4.85;;;2.70;;
65477;SDS011;53678;39.642;22.430;2023-04-03T06:33:04;5.13;;;2.60;;
65477;SDS011;53678;39.642;22.430;2023-04-03T06:35:30;6.50;;;2.30;;
65477;SDS011;53678;39.642;22.430;2023-04-03T06:37:56;3.53;;;2.10;;
65477;SDS011;53678;39.642;22.430;2023-04-03T06:40:23;3.60;;;1.85;;
65477;SDS011;53678;39.642;22.430;2023-04-03T06:42:51;4.68;;;2.20;;
65477;SDS011;53678;39.642;22.430;2023-04-03T06:45:18;5.38;;;2.58;;
65477;SDS011;53678;39.642;22.430;2023-04-03T06:47:44;4.35;;;2.50;;
65477;SDS011;53678;39.642;22.430;2023-04-03T06:50:10;4.90;;;2.30;;
65477;SDS011;53678;39.642;22.430;2023-04-03T06:52:39;4.22;;;2.35;;
65477;SDS011;53678;39.642;22.430;2023-04-03T06:55:06;5.20;;;2.80;;
65477;SDS011;53678;39.642;22.430;2023-04-03T06:57:32;4.03;;;2.20;;
65477;SDS011;53678;39.642;22.430;2023-04-03T06:59:57;7.00;;;2.60;;
65477;SDS011;53678;39.642;22.430;2023-04-03T07:02:23;4.93;;;2.40;;
65477;SDS011;53678;39.642;22.430;2023-04-03T07:04:49;4.35;;;2.30;;
65477;SDS011;53678;39.642;22.430;2023-04-03T07:07:15;3.72;;;1.98;;
65477;SDS011;53678;39.642;22.430;2023-04-03T07:09:42;4.28;;;2.00;;
65477;SDS011;53678;39.642;22.430;2023-04-03T07:12:08;4.13;;;2.20;;
65477;SDS011;53678;39.642;22.430;2023-04-03T07:14:34;3.55;;;2.05;;
65477;SDS011;53678;39.642;22.430;2023-04-03T07:17:02;5.93;;;2.30;;
65477;SDS011;53678;39.642;22.430;2023-04-03T07:19:28;4.28;;;2.33;;
65477;SDS011;53678;39.642;22.430;2023-04-03T07:21:53;5.70;;;2.00;;
65477;SDS011;53678;39.642;22.430;2023-04-03T07:24:19;5.95;;;2.75;;
65477;SDS011;53678;39.642;22.430;2023-04-03T07:26:50;5.28;;;2.25;;
65477;SDS011;53678;39.642;22.430;2023-04-03T07:29:16;5.78;;;2.00;;
65477;SDS011;53678;39.642;22.430;2023-04-03T07:31:42;3.55;;;2.10;;
65477;SDS011;53678;39.642;22.430;2023-04-03T07:34:08;4.30;;;2.17;;
65477;SDS011;53678;39.642;22.430;2023-04-03T07:36:34;6.03;;;2.15;;
65477;SDS011;53678;39.642;22.430;2023-04-03T07:39:01;3.78;;;2.13;;
65477;SDS011;53678;39.642;22.430;2023-04-03T07:41:27;3.05;;;1.92;;
65477;SDS011;53678;39.642;22.430;2023-04-03T07:43:54;4.20;;;2.40;;
65477;SDS011;53678;39.642;22.430;2023-04-03T07:46:21;3.97;;;2.35;;
65477;SDS011;53678;39.642;22.430;2023-04-03T07:48:47;4.38;;;2.15;;
65477;SDS011;53678;39.642;22.430;2023-04-03T07:51:13;5.40;;;2.20;;
65477;SDS011;53678;39.642;22.430;2023-04-03T07:53:38;3.47;;;1.83;;
65477;SDS011;53678;39.642;22.430;2023-04-03T07:56:04;3.97;;;1.92;;
65477;SDS011;53678;39.642;22.430;2023-04-03T07:58:30;4.25;;;2.05;;
65477;SDS011;53678;39.642;22.430;2023-04-03T08:00:56;10.75;;;2.58;;
65477;SDS011;53678;39.642;22.430;2023-04-03T08:03:22;4.18;;;2.13;;
65477;SDS011;53678;39.642;22.430;2023-04-03T08:05:49;2.38;;;1.70;;
65477;SDS011;53678;39.642;22.430;2023-04-03T08:08:17;5.13;;;2.20;;
65477;SDS011;53678;39.642;22.430;2023-04-03T08:10:47;5.75;;;2.30;;
65477;SDS011;53678;39.642;22.430;2023-04-03T08:13:18;3.67;;;1.88;;
65477;SDS011;53678;39.642;22.430;2023-04-03T08:15:44;5.10;;;2.38;;
65477;SDS011;53678;39.642;22.430;2023-04-03T08:18:10;4.45;;;2.63;;
65477;SDS011;53678;39.642;22.430;2023-04-03T08:20:37;4.75;;;2.72;;
65477;SDS011;53678;39.642;22.430;2023-04-03T08:23:04;4.22;;;2.40;;
65477;SDS011;53678;39.642;22.430;2023-04-03T08:25:29;5.07;;;2.58;;
65477;SDS011;53678;39.642;22.430;2023-04-03T08:27:56;5.63;;;3.13;;
65477;SDS011;53678;39.642;22.430;2023-04-03T08:30:21;4.13;;;2.58;;
65477;SDS011;53678;39.642;22.430;2023-04-03T08:32:47;4.30;;;2.58;;
65477;SDS011;53678;39.642;22.430;2023-04-03T08:35:13;5.05;;;2.53;;
65477;SDS011;53678;39.642;22.430;2023-04-03T08:37:40;8.75;;;3.20;;
65477;SDS011;53678;39.642;22.430;2023-04-03T08:40:06;4.60;;;2.78;;
65477;SDS011;53678;39.642;22.430;2023-04-03T08:45:55;4.20;;;2.60;;
65477;SDS011;53678;39.642;22.430;2023-04-03T08:50:53;7.35;;;2.90;;
65477;SDS011;53678;39.642;22.430;2023-04-03T08:53:28;5.03;;;1.90;;
65477;SDS011;53678;39.642;22.430;2023-04-03T08:55:57;2.67;;;1.50;;
65477;SDS011;53678;39.642;22.430;2023-04-03T08:58:26;10.82;;;2.30;;
65477;SDS011;53678;39.642;22.430;2023-04-03T09:04:05;5.13;;;2.10;;
65477;SDS011;53678;39.642;22.430;2023-04-03T09:06:39;7.28;;;2.47;;
65477;SDS011;53678;39.642;22.430;2023-04-03T09:14:49;5.78;;;2.33;;
65477;SDS011;53678;39.642;22.430;2023-04-03T09:17:46;5.53;;;2.05;;
65477;SDS011;53678;39.642;22.430;2023-04-03T09:22:58;6.25;;;2.03;;
65477;SDS011;53678;39.642;22.430;2023-04-03T09:25:27;3.33;;;1.67;;
65477;SDS011;53678;39.642;22.430;2023-04-03T09:27:59;4.85;;;2.03;;
65477;SDS011;53678;39.642;22.430;2023-04-03T09:30:26;4.35;;;1.52;;
65477;SDS011;53678;39.642;22.430;2023-04-03T09:32:54;3.80;;;1.70;;
65477;SDS011;53678;39.642;22.430;2023-04-03T09:37:52;5.57;;;1.77;;
65477;SDS011;53678;39.642;22.430;2023-04-03T09:43:01;8.77;;;2.50;;
65477;SDS011;53678;39.642;22.430;2023-04-03T09:45:45;3.60;;;1.88;;
65477;SDS011;53678;39.642;22.430;2023-04-03T09:51:02;6.28;;;2.20;;
65477;SDS011;53678;39.642;22.430;2023-04-03T09:53:38;9.32;;;2.35;;
65477;SDS011;53678;39.642;22.430;2023-04-03T09:58:50;6.15;;;2.45;;
65477;SDS011;53678;39.642;22.430;2023-04-03T10:06:38;7.07;;;2.40;;
65477;SDS011;53678;39.642;22.430;2023-04-03T10:09:22;3.72;;;1.52;;
65477;SDS011;53678;39.642;22.430;2023-04-03T10:12:11;4.43;;;2.10;;
65477;SDS011;53678;39.642;22.430;2023-04-03T10:14:53;4.28;;;1.50;;
65477;SDS011;53678;39.642;22.430;2023-04-03T10:19:52;3.40;;;1.75;;
65477;SDS011;53678;39.642;22.430;2023-04-03T10:22:41;3.45;;;1.60;;
65477;SDS011;53678;39.642;22.430;2023-04-03T10:34:06;2.55;;;1.33;;
65477;SDS011;53678;39.642;22.430;2023-04-03T10:37:11;2.67;;;1.38;;
65477;SDS011;53678;39.642;22.430;2023-04-03T10:40:11;2.05;;;1.30;;
65477;SDS011;53678;39.642;22.430;2023-04-03T10:43:02;1.60;;;1.10;;
65477;SDS011;53678;39.642;22.430;2023-04-03T10:49:10;2.33;;;1.35;;
65477;SDS011;53678;39.642;22.430;2023-04-03T10:53:55;3.53;;;1.50;;
65477;SDS011;53678;39.642;22.430;2023-04-03T11:02:04;4.72;;;1.98;;
65477;SDS011;53678;39.642;22.430;2023-04-03T11:04:37;7.82;;;2.70;;
65477;SDS011;53678;39.642;22.430;2023-04-03T11:07:11;9.20;;;3.17;;
65477;SDS011;53678;39.642;22.430;2023-04-03T11:09:48;9.20;;;3.40;;
65477;SDS011;53678;39.642;22.430;2023-04-03T11:12:56;6.97;;;5.10;;
65477;SDS011;53678;39.642;22.430;2023-04-03T11:15:32;10.18;;;5.07;;
65477;SDS011;53678;39.642;22.430;2023-04-03T11:18:00;6.50;;;4.20;;
65477;SDS011;53678;39.642;22.430;2023-04-03T11:20:41;8.35;;;4.28;;
65477;SDS011;53678;39.642;22.430;2023-04-03T11:25:51;7.10;;;3.60;;
65477;SDS011;53678;39.642;22.430;2023-04-03T11:28:19;9.93;;;4.63;;
65477;SDS011;53678;39.642;22.430;2023-04-03T11:30:51;6.53;;;4.30;;
65477;SDS011;53678;39.642;22.430;2023-04-03T11:36:12;7.82;;;3.92;;
65477;SDS011;53678;39.642;22.430;2023-04-03T11:38:47;10.50;;;4.35;;
65477;SDS011;53678;39.642;22.430;2023-04-03T11:41:16;13.15;;;6.30;;
65477;SDS011;53678;39.642;22.430;2023-04-03T11:43:56;8.23;;;3.30;;
65477;SDS011;53678;39.642;22.430;2023-04-03T12:05:57;3.33;;;1.15;;
65477;SDS011;53678;39.642;22.430;2023-04-03T12:13:41;2.92;;;1.67;;
65477;SDS011;53678;39.642;22.430;2023-04-03T12:43:17;0.63;;;0.60;;
65477;SDS011;53678;39.642;22.430;2023-04-03T12:45:51;3.90;;;0.77;;
65477;SDS011;53678;39.642;22.430;2023-04-03T12:48:27;1.10;;;0.82;;
65477;SDS011;53678;39.642;22.430;2023-04-03T12:50:55;3.60;;;0.80;;
65477;SDS011;53678;39.642;22.430;2023-04-03T12:53:27;2.67;;;1.35;;
65477;SDS011;53678;39.642;22.430;2023-04-03T12:56:18;3.30;;;0.85;;
65477;SDS011;53678;39.642;22.430;2023-04-03T12:58:53;2.97;;;0.90;;
65477;SDS011;53678;39.642;22.430;2023-04-03T13:01:21;5.20;;;2.63;;
65477;SDS011;53678;39.642;22.430;2023-04-03T13:03:50;3.88;;;1.60;;
65477;SDS011;53678;39.642;22.430;2023-04-03T13:06:26;1.17;;;0.90;;
65477;SDS011;53678;39.642;22.430;2023-04-03T13:08:57;1.83;;;0.82;;
65477;SDS011;53678;39.642;22.430;2023-04-03T13:11:26;1.35;;;0.90;;
65477;SDS011;53678;39.642;22.430;2023-04-03T13:13:58;2.53;;;1.00;;
65477;SDS011;53678;39.642;22.430;2023-04-03T13:16:32;2.47;;;0.90;;
65477;SDS011;53678;39.642;22.430;2023-04-03T13:18:59;3.25;;;1.30;;
65477;SDS011;53678;39.642;22.430;2023-04-03T13:21:30;3.83;;;1.30;;
65477;SDS011;53678;39.642;22.430;2023-04-03T13:24:00;3.15;;;1.02;;
65477;SDS011;53678;39.642;22.430;2023-04-03T13:26:29;1.65;;;1.00;;
65477;SDS011;53678;39.642;22.430;2023-04-03T13:29:40;4.07;;;1.40;;
65477;SDS011;53678;39.642;22.430;2023-04-03T13:31:56;2.53;;;1.20;;
65477;SDS011;53678;39.642;22.430;2023-04-03T13:34:24;2.85;;;1.17;;
65477;SDS011;53678;39.642;22.430;2023-04-03T13:39:24;2.45;;;0.88;;
65477;SDS011;53678;39.642;22.430;2023-04-03T13:41:51;4.10;;;1.20;;
65477;SDS011;53678;39.642;22.430;2023-04-03T13:46:51;3.28;;;1.60;;
65477;SDS011;53678;39.642;22.430;2023-04-03T13:51:46;4.82;;;1.75;;
65477;SDS011;53678;39.642;22.430;2023-04-03T13:54:22;4.60;;;1.73;;
65477;SDS011;53678;39.642;22.430;2023-04-03T13:56:57;8.25;;;2.47;;
65477;SDS011;53678;39.642;22.430;2023-04-03T13:59:27;10.10;;;2.80;;
65477;SDS011;53678;39.642;22.430;2023-04-03T14:04:29;6.75;;;2.15;;
65477;SDS011;53678;39.642;22.430;2023-04-03T14:06:58;8.60;;;2.53;;
65477;SDS011;53678;39.642;22.430;2023-04-03T14:09:25;5.78;;;2.28;;
65477;SDS011;53678;39.642;22.430;2023-04-03T14:11:57;4.95;;;2.45;;
65477;SDS011;53678;39.642;22.430;2023-04-03T14:14:31;6.95;;;2.80;;
65477;SDS011;53678;39.642;22.430;2023-04-03T14:17:00;11.30;;;2.50;;
65477;SDS011;53678;39.642;22.430;2023-04-03T14:19:28;7.28;;;2.28;;
65477;SDS011;53678;39.642;22.430;2023-04-03T14:22:00;5.80;;;2.00;;
65477;SDS011;53678;39.642;22.430;2023-04-03T14:24:36;7.40;;;3.10;;
65477;SDS011;53678;39.642;22.430;2023-04-03T14:27:01;7.82;;;2.60;;
65477;SDS011;53678;39.642;22.430;2023-04-03T14:29:27;5.28;;;2.38;;
65477;SDS011;53678;39.642;22.430;2023-04-03T14:31:53;4.18;;;1.85;;
65477;SDS011;53678;39.642;22.430;2023-04-03T14:34:19;3.25;;;1.60;;
65477;SDS011;53678;39.642;22.430;2023-04-03T14:36:44;3.83;;;1.80;;
65477;SDS011;53678;39.642;22.430;2023-04-03T14:39:16;2.13;;;0.95;;
65477;SDS011;53678;39.642;22.430;2023-04-03T14:41:45;2.00;;;1.30;;
65477;SDS011;53678;39.642;22.430;2023-04-03T14:44:11;3.85;;;1.50;;
65477;SDS011;53678;39.642;22.430;2023-04-03T14:46:38;4.10;;;1.20;;
65477;SDS011;53678;39.642;22.430;2023-04-03T14:49:18;4.18;;;1.40;;
65477;SDS011;53678;39.642;22.430;2023-04-03T14:51:46;5.43;;;1.98;;
65477;SDS011;53678;39.642;22.430;2023-04-03T14:54:17;2.35;;;1.67;;
65477;SDS011;53678;39.642;22.430;2023-04-03T14:56:46;4.13;;;1.63;;
65477;SDS011;53678;39.642;22.430;2023-04-03T14:59:13;5.38;;;1.95;;
65477;SDS011;53678;39.642;22.430;2023-04-03T15:01:40;4.70;;;2.15;;
65477;SDS011;53678;39.642;22.430;2023-04-03T15:04:16;9.77;;;3.10;;
65477;SDS011;53678;39.642;22.430;2023-04-03T15:06:46;8.27;;;2.88;;
65477;SDS011;53678;39.642;22.430;2023-04-03T15:09:23;4.65;;;2.38;;
65477;SDS011;53678;39.642;22.430;2023-04-03T15:11:51;8.73;;;2.45;;
65477;SDS011;53678;39.642;22.430;2023-04-03T15:14:17;5.63;;;2.90;;
65477;SDS011;53678;39.642;22.430;2023-04-03T15:16:43;15.07;;;3.60;;
65477;SDS011;53678;39.642;22.430;2023-04-03T15:19:10;9.50;;;3.22;;
65477;SDS011;53678;39.642;22.430;2023-04-03T15:21:36;9.98;;;4.20;;
65477;SDS011;53678;39.642;22.430;2023-04-03T15:24:02;13.52;;;3.78;;
65477;SDS011;53678;39.642;22.430;2023-04-03T15:26:30;18.92;;;3.67;;
65477;SDS011;53678;39.642;22.430;2023-04-03T15:29:02;11.00;;;3.00;;
65477;SDS011;53678;39.642;22.430;2023-04-03T15:31:29;18.13;;;3.70;;
65477;SDS011;53678;39.642;22.430;2023-04-03T15:33:55;16.90;;;4.50;;
65477;SDS011;53678;39.642;22.430;2023-04-03T15:36:21;9.38;;;5.03;;
65477;SDS011;53678;39.642;22.430;2023-04-03T15:38:46;13.02;;;4.97;;
65477;SDS011;53678;39.642;22.430;2023-04-03T15:41:12;12.98;;;3.05;;
65477;SDS011;53678;39.642;22.430;2023-04-03T15:43:38;15.77;;;3.70;;
65477;SDS011;53678;39.642;22.430;2023-04-03T15:46:04;22.10;;;5.05;;
65477;SDS011;53678;39.642;22.430;2023-04-03T15:48:30;9.52;;;3.42;;
65477;SDS011;53678;39.642;22.430;2023-04-03T15:50:57;12.55;;;3.92;;
65477;SDS011;53678;39.642;22.430;2023-04-03T15:53:24;9.43;;;4.10;;
65477;SDS011;53678;39.642;22.430;2023-04-03T15:55:50;9.07;;;3.75;;
65477;SDS011;53678;39.642;22.430;2023-04-03T15:58:16;6.88;;;3.35;;
65477;SDS011;53678;39.642;22.430;2023-04-03T16:00:41;9.15;;;3.10;;
65477;SDS011;53678;39.642;22.430;2023-04-03T16:03:08;10.07;;;3.70;;
65477;SDS011;53678;39.642;22.430;2023-04-03T16:05:37;5.75;;;2.78;;
65477;SDS011;53678;39.642;22.430;2023-04-03T16:08:04;9.93;;;3.83;;
65477;SDS011;53678;39.642;22.430;2023-04-03T16:10:30;8.07;;;3.50;;
65477;SDS011;53678;39.642;22.430;2023-04-03T16:12:56;11.20;;;5.85;;
65477;SDS011;53678;39.642;22.430;2023-04-03T16:15:22;11.00;;;5.88;;
65477;SDS011;53678;39.642;22.430;2023-04-03T16:17:50;10.90;;;6.35;;
65477;SDS011;53678;39.642;22.430;2023-04-03T16:20:15;13.20;;;5.78;;
65477;SDS011;53678;39.642;22.430;2023-04-03T16:22:41;9.18;;;4.75;;
65477;SDS011;53678;39.642;22.430;2023-04-03T16:25:08;8.65;;;5.10;;
65477;SDS011;53678;39.642;22.430;2023-04-03T16:27:35;13.00;;;6.85;;
65477;SDS011;53678;39.642;22.430;2023-04-03T16:30:01;16.38;;;9.35;;
65477;SDS011;53678;39.642;22.430;2023-04-03T16:32:27;12.70;;;7.57;;
65477;SDS011;53678;39.642;22.430;2023-04-03T16:34:55;33.30;;;15.93;;
65477;SDS011;53678;39.642;22.430;2023-04-03T16:37:21;21.38;;;11.93;;
65477;SDS011;53678;39.642;22.430;2023-04-03T16:39:47;13.73;;;6.70;;
65477;SDS011;53678;39.642;22.430;2023-04-03T16:42:13;10.93;;;6.30;;
65477;SDS011;53678;39.642;22.430;2023-04-03T16:44:38;22.10;;;6.65;;
65477;SDS011;53678;39.642;22.430;2023-04-03T16:47:05;10.85;;;6.88;;
65477;SDS011;53678;39.642;22.430;2023-04-03T16:49:33;10.85;;;5.18;;